createdAt,value
2023-05-15T00:01:32.562Z,88.71
2023-05-15T00:03:59.383Z,88.53
2023-05-15T00:06:26.376Z,88.12
2023-05-15T00:08:53.309Z,88.92
2023-05-15T00:11:21.395Z,88.38
2023-05-15T00:13:48.115Z,88.62
2023-05-15T00:16:14.977Z,88.10
2023-05-15T00:18:41.841Z,88.55
2023-05-15T00:21:09.077Z,88.44
2023-05-15T00:23:35.824Z,87.72
2023-05-15T00:26:03.071Z,88.28
2023-05-15T00:28:29.856Z,87.54
2023-05-15T00:30:56.839Z,87.60
2023-05-15T00:33:23.654Z,87.67
2023-05-15T00:35:51.062Z,87.38
2023-05-15T00:38:17.820Z,87.67
2023-05-15T00:40:45.850Z,88.21
2023-05-15T00:43:13.079Z,88.05
2023-05-15T00:45:41.455Z,87.89
2023-05-15T00:48:10.079Z,88.03
2023-05-15T00:50:38.250Z,89.00
2023-05-15T00:53:06.094Z,88.55
2023-05-15T00:55:34.081Z,88.92
2023-05-15T00:58:02.344Z,89.00
2023-05-15T01:00:32.857Z,88.79
2023-05-15T01:03:00.042Z,89.18
2023-05-15T01:05:27.426Z,89.38
2023-05-15T01:08:38.449Z,89.40
2023-05-15T01:11:07.723Z,89.78
2023-05-15T01:13:34.799Z,89.73
2023-05-15T01:16:01.698Z,89.90
2023-05-15T01:18:32.595Z,89.89
2023-05-15T01:21:05.288Z,90.34
2023-05-15T01:24:03.398Z,90.12
2023-05-15T01:26:58.179Z,90.46
2023-05-15T01:29:30.703Z,91.47
2023-05-15T01:32:03.164Z,91.97
2023-05-15T01:34:39.425Z,92.42
2023-05-15T01:37:08.069Z,93.07
2023-05-15T01:39:36.208Z,93.69
2023-05-15T01:42:08.345Z,93.60
2023-05-15T01:44:38.193Z,93.56
2023-05-15T01:47:12.220Z,93.28
2023-05-15T01:49:40.604Z,96.01
2023-05-15T01:52:13.773Z,96.76
2023-05-15T01:54:41.962Z,97.03
2023-05-15T01:57:10.409Z,97.28
2023-05-15T01:59:37.418Z,96.97
2023-05-15T02:02:07.995Z,97.75
2023-05-15T02:04:36.332Z,97.73
2023-05-15T02:07:04.457Z,97.95
2023-05-15T02:09:32.627Z,98.13
2023-05-15T02:12:01.491Z,98.73
2023-05-15T02:14:32.216Z,99.72
2023-05-15T02:16:59.068Z,99.98
2023-05-15T02:19:25.981Z,100.15
2023-05-15T02:21:52.854Z,99.88
2023-05-15T02:24:19.567Z,100.06
2023-05-15T02:27:00.034Z,100.28
2023-05-15T02:29:51.376Z,100.27
2023-05-15T02:32:36.761Z,100.37
2023-05-15T02:35:26.663Z,100.74
2023-05-15T02:37:56.621Z,100.92
2023-05-15T02:40:24.914Z,101.71
2023-05-15T02:42:54.253Z,102.26
2023-05-15T02:45:24.120Z,102.45
2023-05-15T02:47:51.626Z,102.18
2023-05-15T02:50:18.830Z,102.22
2023-05-15T02:52:45.561Z,101.82
2023-05-15T02:55:12.416Z,102.31
2023-05-15T02:57:39.710Z,101.75
2023-05-15T03:00:09.116Z,101.73
2023-05-15T03:02:36.160Z,102.47
2023-05-15T03:05:03.488Z,102.22
2023-05-15T03:07:30.352Z,102.84
2023-05-15T03:09:57.040Z,103.39
2023-05-15T03:12:23.729Z,103.54
2023-05-15T03:14:50.391Z,103.13
2023-05-15T03:17:17.192Z,103.67
2023-05-15T03:19:44.001Z,103.99
2023-05-15T03:22:10.735Z,103.29
2023-05-15T03:24:37.507Z,103.25
2023-05-15T03:27:05.205Z,103.83
2023-05-15T03:29:31.949Z,104.22
2023-05-15T03:31:58.736Z,104.31
2023-05-15T03:34:25.514Z,105.21
2023-05-15T03:36:52.310Z,105.02
2023-05-15T03:39:19.069Z,105.15
2023-05-15T03:41:45.752Z,105.87
2023-05-15T03:44:12.603Z,105.76
2023-05-15T03:46:39.348Z,105.23
2023-05-15T03:49:06.049Z,105.27
2023-05-15T03:51:32.980Z,104.75
2023-05-15T03:53:59.922Z,104.42
2023-05-15T03:56:26.659Z,104.79
2023-05-15T03:58:53.729Z,104.15
2023-05-15T04:01:20.507Z,104.51
2023-05-15T04:03:47.215Z,104.89
2023-05-15T04:06:14.101Z,104.10
2023-05-15T04:08:41.634Z,104.73
2023-05-15T04:11:11.934Z,105.27
2023-05-15T04:13:38.646Z,104.51
2023-05-15T04:16:06.086Z,103.99
2023-05-15T04:18:32.922Z,103.63
2023-05-15T04:20:59.815Z,103.33
2023-05-15T04:23:26.789Z,102.89
2023-05-15T04:25:53.672Z,102.65
2023-05-15T04:28:23.696Z,102.51
2023-05-15T04:30:50.754Z,102.04
2023-05-15T04:33:17.627Z,101.38
2023-05-15T04:35:44.534Z,100.63
2023-05-15T04:38:11.353Z,100.56
2023-05-15T04:40:38.200Z,100.24
2023-05-15T04:43:05.238Z,100.68
2023-05-15T04:45:31.994Z,100.82
2023-05-15T04:47:58.835Z,99.05
2023-05-15T04:50:25.891Z,98.61
2023-05-15T04:52:52.924Z,99.39
2023-05-15T04:55:19.703Z,99.07
2023-05-15T04:57:47.929Z,98.76
2023-05-15T05:00:15.661Z,99.63
2023-05-15T05:02:45.404Z,99.54
2023-05-15T05:05:14.569Z,99.37
2023-05-15T05:07:42.456Z,99.58
2023-05-15T05:10:09.765Z,99.55
2023-05-15T05:12:36.459Z,99.00
2023-05-15T05:15:03.346Z,98.50
2023-05-15T05:17:31.024Z,99.21
2023-05-15T05:19:57.765Z,99.29
2023-05-15T05:22:24.688Z,99.68
2023-05-15T05:24:51.461Z,98.42
2023-05-15T05:27:18.230Z,95.36
2023-05-15T05:29:45.229Z,93.72
2023-05-15T05:32:12.619Z,94.17
2023-05-15T05:34:39.510Z,95.46
2023-05-15T05:37:06.537Z,95.86
2023-05-15T05:39:33.473Z,95.62
2023-05-15T05:42:00.350Z,96.23
2023-05-15T05:44:27.465Z,96.33
2023-05-15T05:46:54.335Z,97.27
2023-05-15T05:49:21.265Z,96.75
2023-05-15T05:51:48.076Z,96.45
2023-05-15T05:54:18.455Z,97.40
2023-05-15T05:56:46.056Z,97.32
2023-05-15T05:59:12.918Z,98.17
2023-05-15T06:01:40.219Z,98.50
2023-05-15T06:04:07.077Z,99.79
2023-05-15T06:06:34.598Z,94.65
2023-05-15T06:09:01.418Z,92.21
2023-05-15T06:11:28.117Z,90.38
2023-05-15T06:13:54.940Z,88.19
2023-05-15T06:16:21.839Z,87.38
2023-05-15T06:18:48.685Z,88.40
2023-05-15T06:21:15.506Z,86.97
2023-05-15T06:23:42.221Z,87.67
2023-05-15T06:26:09.117Z,86.03
2023-05-15T06:28:36.000Z,84.49
2023-05-15T06:31:02.941Z,83.56
2023-05-15T06:33:29.795Z,81.57
2023-05-15T06:35:56.616Z,79.53
2023-05-15T06:38:23.373Z,77.05
2023-05-15T06:40:50.219Z,73.74
2023-05-15T06:43:16.968Z,74.47
2023-05-15T06:45:43.698Z,74.44
2023-05-15T06:48:10.615Z,74.15
2023-05-15T06:50:37.494Z,74.13
2023-05-15T06:53:04.249Z,73.44
2023-05-15T06:55:31.241Z,73.88
2023-05-15T06:57:58.030Z,72.07
2023-05-15T07:00:24.857Z,74.69
2023-05-15T07:02:52.001Z,74.72
2023-05-15T07:05:19.032Z,70.41
2023-05-15T07:07:46.000Z,68.33
2023-05-15T07:10:12.905Z,68.80
2023-05-15T07:12:39.718Z,69.53
2023-05-15T07:15:07.229Z,70.16
2023-05-15T07:17:34.387Z,67.97
2023-05-15T07:20:01.542Z,63.66
2023-05-15T07:22:29.315Z,60.40
2023-05-15T07:24:56.562Z,59.90
2023-05-15T07:27:23.522Z,63.82
2023-05-15T07:29:50.411Z,62.75
2023-05-15T07:32:17.161Z,61.63
2023-05-15T07:34:44.158Z,60.13
2023-05-15T07:37:11.187Z,60.63
2023-05-15T07:39:38.047Z,56.52
2023-05-15T07:42:05.085Z,54.05
2023-05-15T07:44:31.982Z,55.66
2023-05-15T07:46:59.146Z,58.00
2023-05-15T07:49:25.860Z,58.91
2023-05-15T07:51:52.582Z,60.75
2023-05-15T07:54:19.350Z,60.19
2023-05-15T07:56:46.134Z,63.56
2023-05-15T07:59:13.021Z,61.85
2023-05-15T08:01:39.715Z,65.81
2023-05-15T08:04:08.917Z,62.66
2023-05-15T08:06:38.240Z,64.08
2023-05-15T08:09:05.137Z,66.63
2023-05-15T08:11:31.917Z,65.38
2023-05-15T08:13:58.818Z,66.50
2023-05-15T08:16:25.754Z,67.56
2023-05-15T08:18:55.809Z,68.96
2023-05-15T08:21:22.496Z,69.67
2023-05-15T08:23:49.524Z,66.95
2023-05-15T08:26:16.228Z,65.24
2023-05-15T08:28:43.005Z,66.32
2023-05-15T08:31:09.778Z,65.37
2023-05-15T08:33:36.635Z,70.86
2023-05-15T08:36:03.549Z,70.68
2023-05-15T08:38:30.531Z,67.48
2023-05-15T08:41:02.497Z,64.67
2023-05-15T08:43:31.913Z,70.16
2023-05-15T08:45:59.808Z,68.91
2023-05-15T08:48:29.823Z,67.88
2023-05-15T08:50:58.659Z,68.63
2023-05-15T08:53:25.932Z,65.69
2023-05-15T08:55:52.790Z,67.80
2023-05-15T08:58:25.791Z,63.84
2023-05-15T09:00:52.805Z,63.21
2023-05-15T09:03:22.868Z,59.75
2023-05-15T09:05:53.055Z,59.83
2023-05-15T09:08:22.801Z,64.27
2023-05-15T09:10:49.850Z,63.02
2023-05-15T09:13:17.540Z,60.31
2023-05-15T09:15:47.665Z,59.41
2023-05-15T09:18:16.308Z,59.16
2023-05-15T09:20:43.477Z,57.29
2023-05-15T09:23:30.724Z,57.80
2023-05-15T09:25:58.358Z,52.86
2023-05-15T09:28:35.040Z,49.53
2023-05-15T09:31:03.718Z,48.63
2023-05-15T09:33:39.904Z,47.66
2023-05-15T09:36:08.210Z,51.64
2023-05-15T09:38:42.952Z,51.26
2023-05-15T09:41:09.933Z,53.36
2023-05-15T09:43:38.898Z,53.22
2023-05-15T09:46:08.350Z,51.30
2023-05-15T09:48:35.889Z,50.41
2023-05-15T09:51:03.090Z,51.72
2023-05-15T09:53:31.834Z,51.32
2023-05-15T09:55:58.778Z,48.70
2023-05-15T09:58:28.102Z,48.19
2023-05-15T10:00:54.870Z,46.75
2023-05-15T10:03:24.579Z,47.51
2023-05-15T10:05:59.872Z,47.14
2023-05-15T10:08:30.917Z,44.77
2023-05-15T10:11:01.173Z,46.12
2023-05-15T10:13:31.242Z,47.91
2023-05-15T10:15:58.799Z,44.22
2023-05-15T10:18:28.885Z,48.63
2023-05-15T10:20:58.038Z,45.15
2023-05-15T10:23:26.038Z,46.15
2023-05-15T10:26:16.023Z,43.83
2023-05-15T10:28:45.341Z,46.19
2023-05-15T10:31:12.897Z,45.76
2023-05-15T10:33:40.539Z,42.59
2023-05-15T10:36:08.351Z,44.12
2023-05-15T10:38:35.983Z,41.26
2023-05-15T10:41:16.605Z,42.20
2023-05-15T10:43:44.609Z,41.78
2023-05-15T10:46:11.824Z,42.75
2023-05-15T10:48:39.243Z,45.32
2023-05-15T10:51:15.060Z,47.09
2023-05-15T10:53:42.660Z,43.28
2023-05-15T10:56:14.797Z,44.30
2023-05-15T10:58:47.283Z,45.08
2023-05-15T11:01:32.341Z,42.84
2023-05-15T11:04:11.245Z,44.95
2023-05-15T11:06:44.014Z,44.10
2023-05-15T11:09:25.861Z,46.33
2023-05-15T11:11:58.311Z,47.70
2023-05-15T11:14:32.572Z,45.36
2023-05-15T11:17:01.023Z,44.42
2023-05-15T11:19:36.760Z,42.96
2023-05-15T11:22:20.759Z,44.01
2023-05-15T11:25:05.587Z,44.02
2023-05-15T11:27:40.345Z,43.15
2023-05-15T11:30:20.813Z,42.61
2023-05-15T11:32:47.665Z,41.61
2023-05-15T11:35:29.035Z,40.51
2023-05-15T11:37:59.858Z,44.18
2023-05-15T11:40:42.941Z,41.82
2023-05-15T11:43:20.267Z,39.66
2023-05-15T11:45:50.160Z,41.81
2023-05-15T11:48:18.216Z,40.22
2023-05-15T11:50:46.252Z,41.33
2023-05-15T11:53:13.704Z,39.33
2023-05-15T11:55:43.244Z,38.22
2023-05-15T11:58:15.505Z,38.92
2023-05-15T12:00:44.048Z,37.09
2023-05-15T12:03:27.501Z,37.94
2023-05-15T12:05:59.092Z,37.52
2023-05-15T12:08:34.282Z,39.38
2023-05-15T12:11:01.958Z,38.62
2023-05-15T12:13:29.240Z,38.78
2023-05-15T12:15:56.926Z,38.25
2023-05-15T12:18:24.441Z,36.47
2023-05-15T12:20:54.859Z,36.63
2023-05-15T12:23:24.442Z,39.98
2023-05-15T12:25:58.661Z,36.49
2023-05-15T12:28:26.664Z,37.75
2023-05-15T12:30:54.191Z,37.34
2023-05-15T12:33:21.345Z,37.30
2023-05-15T12:35:57.436Z,37.80
2023-05-15T12:38:27.089Z,37.81
2023-05-15T12:40:54.667Z,37.50
2023-05-15T12:43:25.059Z,38.67
2023-05-15T12:45:56.397Z,39.20
2023-05-15T12:48:23.756Z,41.16
2023-05-15T12:50:50.551Z,42.26
2023-05-15T12:53:17.631Z,43.47
2023-05-15T12:55:46.556Z,44.85
2023-05-15T12:58:15.396Z,43.47
2023-05-15T13:00:43.314Z,44.34
2023-05-15T13:03:11.231Z,45.55
2023-05-15T13:05:43.062Z,45.53
2023-05-15T13:08:16.421Z,45.41
2023-05-15T13:10:43.283Z,43.13
2023-05-15T13:13:10.061Z,44.85
2023-05-15T13:15:39.246Z,44.58
2023-05-15T13:18:15.171Z,45.04
2023-05-15T13:20:44.008Z,43.71
2023-05-15T13:23:13.405Z,43.45
2023-05-15T13:25:40.586Z,42.74
2023-05-15T13:28:08.314Z,42.72
2023-05-15T13:30:35.805Z,43.30
2023-05-15T13:33:02.826Z,43.11
2023-05-15T13:35:29.907Z,43.94
2023-05-15T13:37:57.060Z,47.38
2023-05-15T13:40:24.578Z,47.63
2023-05-15T13:42:51.522Z,48.93
2023-05-15T13:45:18.490Z,47.89
2023-05-15T13:47:45.462Z,49.22
2023-05-15T13:50:14.469Z,50.95
2023-05-15T13:52:42.470Z,51.19
2023-05-15T13:55:09.915Z,49.82
2023-05-15T13:57:41.088Z,46.41
2023-05-15T14:00:12.589Z,47.02
2023-05-15T14:02:43.836Z,48.08
2023-05-15T14:05:12.343Z,48.04
2023-05-15T14:07:39.344Z,48.60
2023-05-15T14:10:06.778Z,45.87
2023-05-15T14:12:34.059Z,46.36
2023-05-15T14:15:01.209Z,46.17
2023-05-15T14:17:28.675Z,46.36
2023-05-15T14:19:55.766Z,47.82
2023-05-15T14:22:24.831Z,50.05
2023-05-15T14:24:53.503Z,49.73
2023-05-15T14:27:20.353Z,48.69
2023-05-15T14:29:48.957Z,50.05
2023-05-15T14:32:16.860Z,50.30
2023-05-15T14:34:44.348Z,49.75
2023-05-15T14:37:11.432Z,50.03
2023-05-15T14:39:38.230Z,50.89
2023-05-15T14:42:06.306Z,48.85
2023-05-15T14:44:34.090Z,47.81
2023-05-15T14:47:12.573Z,47.33
2023-05-15T14:49:39.744Z,44.49
2023-05-15T14:52:09.205Z,46.48
2023-05-15T14:54:36.630Z,43.39
2023-05-15T14:57:04.008Z,43.78
2023-05-15T14:59:31.037Z,43.54
2023-05-15T15:01:58.159Z,44.48
2023-05-15T15:04:26.932Z,44.15
2023-05-15T15:06:56.819Z,46.25
2023-05-15T15:09:24.183Z,44.26
2023-05-15T15:11:51.389Z,45.59
2023-05-15T15:14:18.320Z,46.89
2023-05-15T15:16:46.318Z,46.84
2023-05-15T15:19:14.161Z,47.74
2023-05-15T15:21:41.520Z,50.01
2023-05-15T15:24:08.323Z,49.31
2023-05-15T15:26:35.256Z,51.60
2023-05-15T15:29:02.063Z,51.56
2023-05-15T15:31:30.232Z,52.47
2023-05-15T15:33:57.843Z,52.64
2023-05-15T15:36:25.365Z,53.22
2023-05-15T15:38:52.309Z,53.35
2023-05-15T15:41:21.568Z,54.76
2023-05-15T15:43:48.780Z,55.09
2023-05-15T15:46:15.669Z,53.87
2023-05-15T15:48:42.497Z,51.89
2023-05-15T15:51:09.283Z,49.95
2023-05-15T15:53:36.069Z,46.39
2023-05-15T15:56:02.795Z,47.05
2023-05-15T15:58:30.082Z,46.62
2023-05-15T16:00:57.974Z,46.41
2023-05-15T16:03:25.109Z,44.84
2023-05-15T16:05:51.965Z,44.83
2023-05-15T16:08:18.797Z,46.12
2023-05-15T16:10:45.730Z,46.63
2023-05-15T16:13:12.611Z,45.43
2023-05-15T16:15:39.348Z,46.92
2023-05-15T16:18:07.006Z,46.85
2023-05-15T16:20:35.263Z,47.58
2023-05-15T16:23:02.318Z,47.96
2023-05-15T16:25:29.173Z,48.97
2023-05-15T16:27:55.934Z,49.59
2023-05-15T16:30:28.255Z,50.81
2023-05-15T16:33:01.163Z,52.14
2023-05-15T16:35:28.122Z,52.28
2023-05-15T16:37:55.302Z,52.74
2023-05-15T16:40:22.091Z,54.02
2023-05-15T16:42:48.823Z,55.39
2023-05-15T16:45:16.384Z,55.35
2023-05-15T16:47:43.196Z,56.33
2023-05-15T16:50:10.776Z,56.45
2023-05-15T16:52:39.523Z,57.14
2023-05-15T16:55:06.723Z,56.39
2023-05-15T16:57:33.492Z,56.90
2023-05-15T17:00:00.227Z,56.21
2023-05-15T17:02:27.132Z,56.91
2023-05-15T17:04:54.086Z,56.83
2023-05-15T17:07:20.968Z,56.35
2023-05-15T17:09:47.794Z,56.19
2023-05-15T17:12:14.581Z,58.38
2023-05-15T17:14:41.406Z,58.09
2023-05-15T17:17:08.305Z,58.23
2023-05-15T17:19:35.218Z,57.60
2023-05-15T17:22:02.149Z,57.38
2023-05-15T17:24:42.237Z,57.36
2023-05-15T17:27:18.371Z,58.88
2023-05-15T17:29:45.517Z,59.44
2023-05-15T17:32:12.464Z,58.95
2023-05-15T17:34:39.346Z,60.01
2023-05-15T17:37:06.085Z,62.10
2023-05-15T17:39:33.110Z,61.71
2023-05-15T17:42:00.170Z,62.13
2023-05-15T17:44:29.716Z,62.07
2023-05-15T17:46:57.545Z,62.43
2023-05-15T17:49:24.703Z,62.63
2023-05-15T17:51:51.676Z,62.71
2023-05-15T17:54:18.678Z,63.39
2023-05-15T17:56:45.692Z,63.61
2023-05-15T17:59:12.626Z,64.37
2023-05-15T18:01:39.640Z,64.65
2023-05-15T18:04:06.557Z,65.37
2023-05-15T18:06:36.269Z,71.21
2023-05-15T18:09:03.559Z,69.97
2023-05-15T18:11:30.474Z,68.44
2023-05-15T18:13:57.380Z,69.69
2023-05-15T18:16:24.516Z,71.22
2023-05-15T18:18:52.266Z,74.30
2023-05-15T18:21:19.472Z,79.25
2023-05-15T18:23:46.337Z,84.75
2023-05-15T18:26:13.275Z,88.48
2023-05-15T18:28:40.261Z,88.80
2023-05-15T18:31:07.149Z,89.61
2023-05-15T18:33:34.399Z,90.12
2023-05-15T18:36:01.474Z,91.21
2023-05-15T18:38:28.569Z,90.73
2023-05-15T18:40:55.344Z,91.50
2023-05-15T18:43:22.114Z,91.37
2023-05-15T18:45:49.008Z,92.52
2023-05-15T18:48:17.248Z,92.59
2023-05-15T18:50:44.064Z,93.27
2023-05-15T18:53:10.988Z,91.69
2023-05-15T18:55:38.966Z,90.74
2023-05-15T18:58:06.018Z,91.63
2023-05-15T19:00:38.929Z,90.69
2023-05-15T19:03:08.525Z,92.52
2023-05-15T19:05:35.690Z,92.88
2023-05-15T19:08:03.104Z,93.03
2023-05-15T19:10:30.577Z,93.05
2023-05-15T19:12:58.095Z,92.94
2023-05-15T19:15:25.272Z,92.35
2023-05-15T19:17:52.393Z,90.51
2023-05-15T19:20:19.521Z,91.51
2023-05-15T19:22:46.538Z,93.06
2023-05-15T19:25:13.391Z,93.97
2023-05-15T19:27:40.379Z,93.26
2023-05-15T19:30:08.418Z,92.18
2023-05-15T19:32:35.332Z,93.44
2023-05-15T19:35:02.564Z,94.23
2023-05-15T19:37:29.599Z,95.09
2023-05-15T19:39:57.130Z,93.56
2023-05-15T19:42:23.959Z,93.91
2023-05-15T19:44:50.775Z,93.24
2023-05-15T19:47:17.501Z,91.99
2023-05-15T19:49:44.377Z,92.05
2023-05-15T19:52:11.168Z,91.05
2023-05-15T19:54:38.072Z,91.04
2023-05-15T19:57:04.956Z,88.47
2023-05-15T19:59:31.812Z,91.18
2023-05-15T20:01:58.617Z,90.34
2023-05-15T20:04:25.966Z,88.66
2023-05-15T20:06:53.290Z,88.50
2023-05-15T20:09:20.428Z,87.15
2023-05-15T20:11:47.122Z,87.05
2023-05-15T20:14:14.544Z,86.99
2023-05-15T20:16:41.364Z,88.35
2023-05-15T20:19:11.034Z,89.64
2023-05-15T20:21:38.966Z,89.47
2023-05-15T20:24:06.924Z,89.28
2023-05-15T20:26:35.978Z,89.78
2023-05-15T20:29:03.512Z,90.14
2023-05-15T20:31:30.370Z,88.86
2023-05-15T20:33:57.316Z,88.73
2023-05-15T20:36:25.598Z,89.36
2023-05-15T20:38:52.825Z,89.07
2023-05-15T20:41:20.358Z,90.62
2023-05-15T20:43:49.566Z,89.70
2023-05-15T20:46:17.161Z,91.03
2023-05-15T20:48:44.139Z,92.40
2023-05-15T20:51:11.087Z,93.54
2023-05-15T20:53:37.920Z,95.25
2023-05-15T20:56:04.785Z,95.57
2023-05-15T20:58:31.619Z,94.54
2023-05-15T21:01:00.971Z,94.48
2023-05-15T21:03:29.131Z,94.90
2023-05-15T21:05:57.560Z,95.88
2023-05-15T21:08:24.510Z,96.21
2023-05-15T21:10:53.142Z,96.78
2023-05-15T21:13:19.904Z,97.26
2023-05-15T21:15:47.074Z,97.35
2023-05-15T21:18:13.977Z,97.35
2023-05-15T21:20:41.702Z,99.13
2023-05-15T21:23:08.476Z,99.15
2023-05-15T21:25:35.418Z,98.71
2023-05-15T21:28:02.160Z,98.18
2023-05-15T21:30:28.957Z,98.20
2023-05-15T21:32:55.792Z,97.93
2023-05-15T21:35:22.604Z,98.07
2023-05-15T21:37:49.327Z,98.97
2023-05-15T21:40:16.153Z,99.28
2023-05-15T21:42:43.494Z,99.38
2023-05-15T21:45:10.899Z,99.70
2023-05-15T21:47:37.811Z,99.94
2023-05-15T21:50:06.061Z,100.56
2023-05-15T21:52:32.921Z,100.25
2023-05-15T21:54:59.633Z,101.08
2023-05-15T21:57:26.401Z,101.18
2023-05-15T21:59:53.073Z,100.79
2023-05-15T22:02:19.867Z,101.32
2023-05-15T22:04:46.736Z,101.48
2023-05-15T22:07:14.931Z,101.97
2023-05-15T22:09:43.790Z,102.61
2023-05-15T22:12:10.624Z,101.66
2023-05-15T22:14:39.615Z,102.69
2023-05-15T22:17:11.095Z,102.68
2023-05-15T22:19:37.910Z,102.83
2023-05-15T22:22:04.933Z,103.30
2023-05-15T22:24:32.459Z,102.31
2023-05-15T22:26:59.654Z,102.32
2023-05-15T22:29:26.782Z,102.94
2023-05-15T22:31:53.532Z,102.82
2023-05-15T22:34:20.310Z,102.89
2023-05-15T22:36:47.087Z,104.09
2023-05-15T22:39:13.855Z,104.02
2023-05-15T22:41:40.763Z,103.54
2023-05-15T22:44:07.427Z,104.10
2023-05-15T22:46:34.226Z,104.06
2023-05-15T22:49:01.526Z,104.74
2023-05-15T22:51:29.480Z,104.70
2023-05-15T22:53:56.213Z,105.46
2023-05-15T22:56:22.940Z,105.27
2023-05-15T22:58:49.703Z,105.63
2023-05-15T23:01:16.531Z,106.03
2023-05-15T23:03:43.295Z,105.99
2023-05-15T23:06:10.595Z,109.35
2023-05-15T23:08:37.329Z,111.89
2023-05-15T23:11:04.278Z,108.88
2023-05-15T23:13:31.098Z,109.81
2023-05-15T23:15:57.900Z,107.78
2023-05-15T23:18:25.113Z,109.88
2023-05-15T23:20:52.343Z,112.77
2023-05-15T23:23:19.527Z,113.19
2023-05-15T23:25:46.303Z,115.80
2023-05-15T23:28:13.135Z,116.81
2023-05-15T23:30:39.931Z,117.21
2023-05-15T23:33:06.701Z,117.11
2023-05-15T23:35:33.461Z,117.63
2023-05-15T23:38:00.321Z,116.88
2023-05-15T23:40:27.244Z,116.93
2023-05-15T23:42:54.266Z,116.61
2023-05-15T23:45:21.030Z,116.50
2023-05-15T23:47:47.996Z,115.86
2023-05-15T23:50:14.795Z,116.06
2023-05-15T23:52:41.532Z,115.42
2023-05-15T23:55:08.715Z,115.16
2023-05-15T23:57:35.515Z,114.57
